sensor_id;sensor_type;location;lat;lon;timestamp;P1;durP1;ratioP1;P2;durP2;ratioP2
23060;SDS011;11698;47.690;9.132;2023-04-24T00:02:15;1.00;;;0.40;;
23060;SDS011;11698;47.690;9.132;2023-04-24T00:04:41;0.88;;;0.32;;
23060;SDS011;11698;47.690;9.132;2023-04-24T00:07:10;0.88;;;0.45;;
23060;SDS011;11698;47.690;9.132;2023-04-24T00:09:36;1.73;;;0.40;;
23060;SDS011;11698;47.690;9.132;2023-04-24T00:12:02;0.52;;;0.38;;
23060;SDS011;11698;47.690;9.132;2023-04-24T00:14:29;1.73;;;0.50;;
23060;SDS011;11698;47.690;9.132;2023-04-24T00:16:55;0.50;;;0.40;;
23060;SDS011;11698;47.690;9.132;2023-04-24T00:19:21;0.60;;;0.43;;
23060;SDS011;11698;47.690;9.132;2023-04-24T00:21:47;1.33;;;0.63;;
23060;SDS011;11698;47.690;9.132;2023-04-24T00:24:16;0.50;;;0.47;;
23060;SDS011;11698;47.690;9.132;2023-04-24T00:26:43;0.77;;;0.38;;
23060;SDS011;11698;47.690;9.132;2023-04-24T00:29:09;0.60;;;0.50;;
23060;SDS011;11698;47.690;9.132;2023-04-24T00:31:35;0.93;;;0.45;;
23060;SDS011;11698;47.690;9.132;2023-04-24T00:34:01;0.90;;;0.50;;
23060;SDS011;11698;47.690;9.132;2023-04-24T00:36:28;1.75;;;0.50;;
23060;SDS011;11698;47.690;9.132;2023-04-24T00:38:54;0.90;;;0.47;;
23060;SDS011;11698;47.690;9.132;2023-04-24T00:41:20;1.17;;;0.40;;
23060;SDS011;11698;47.690;9.132;2023-04-24T00:43:47;1.42;;;0.50;;
23060;SDS011;11698;47.690;9.132;2023-04-24T00:46:14;1.50;;;0.47;;
23060;SDS011;11698;47.690;9.132;2023-04-24T00:48:40;0.70;;;0.60;;
23060;SDS011;11698;47.690;9.132;2023-04-24T00:51:06;0.98;;;0.50;;
23060;SDS011;11698;47.690;9.132;2023-04-24T00:53:32;0.60;;;0.47;;
23060;SDS011;11698;47.690;9.132;2023-04-24T00:55:58;1.00;;;0.43;;
23060;SDS011;11698;47.690;9.132;2023-04-24T00:58:25;0.70;;;0.53;;
23060;SDS011;11698;47.690;9.132;2023-04-24T01:00:51;0.65;;;0.60;;
23060;SDS011;11698;47.690;9.132;2023-04-24T01:03:19;0.70;;;0.60;;
23060;SDS011;11698;47.690;9.132;2023-04-24T01:05:46;0.70;;;0.50;;
23060;SDS011;11698;47.690;9.132;2023-04-24T01:08:13;1.27;;;0.50;;
23060;SDS011;11698;47.690;9.132;2023-04-24T01:10:40;0.70;;;0.50;;
23060;SDS011;11698;47.690;9.132;2023-04-24T01:13:07;0.70;;;0.47;;
23060;SDS011;11698;47.690;9.132;2023-04-24T01:15:34;1.70;;;0.60;;
23060;SDS011;11698;47.690;9.132;2023-04-24T01:18:00;0.38;;;0.30;;
23060;SDS011;11698;47.690;9.132;2023-04-24T01:20:26;1.90;;;0.43;;
23060;SDS011;11698;47.690;9.132;2023-04-24T01:22:54;0.32;;;0.20;;
23060;SDS011;11698;47.690;9.132;2023-04-24T01:25:21;0.20;;;0.20;;
23060;SDS011;11698;47.690;9.132;2023-04-24T01:27:47;0.75;;;0.30;;
23060;SDS011;11698;47.690;9.132;2023-04-24T01:30:13;0.20;;;0.20;;
23060;SDS011;11698;47.690;9.132;2023-04-24T01:32:40;0.95;;;0.17;;
23060;SDS011;11698;47.690;9.132;2023-04-24T01:35:06;0.88;;;0.38;;
23060;SDS011;11698;47.690;9.132;2023-04-24T01:37:32;1.40;;;0.20;;
23060;SDS011;11698;47.690;9.132;2023-04-24T01:39:58;0.40;;;0.20;;
23060;SDS011;11698;47.690;9.132;2023-04-24T01:42:25;0.13;;;0.10;;
23060;SDS011;11698;47.690;9.132;2023-04-24T01:44:51;0.28;;;0.28;;
23060;SDS011;11698;47.690;9.132;2023-04-24T01:47:17;0.30;;;0.30;;
23060;SDS011;11698;47.690;9.132;2023-04-24T01:49:43;0.30;;;0.10;;
23060;SDS011;11698;47.690;9.132;2023-04-24T01:52:10;0.10;;;0.10;;
23060;SDS011;11698;47.690;9.132;2023-04-24T01:54:36;0.20;;;0.20;;
23060;SDS011;11698;47.690;9.132;2023-04-24T01:57:02;0.10;;;0.10;;
23060;SDS011;11698;47.690;9.132;2023-04-24T01:59:28;0.35;;;0.10;;
23060;SDS011;11698;47.690;9.132;2023-04-24T02:01:54;0.80;;;0.30;;
23060;SDS011;11698;47.690;9.132;2023-04-24T02:04:20;1.00;;;0.15;;
23060;SDS011;11698;47.690;9.132;2023-04-24T02:06:46;0.15;;;0.10;;
23060;SDS011;11698;47.690;9.132;2023-04-24T02:09:13;0.10;;;0.10;;
23060;SDS011;11698;47.690;9.132;2023-04-24T02:11:39;0.43;;;0.20;;
23060;SDS011;11698;47.690;9.132;2023-04-24T02:14:05;1.20;;;0.20;;
23060;SDS011;11698;47.690;9.132;2023-04-24T02:16:31;0.85;;;0.20;;
23060;SDS011;11698;47.690;9.132;2023-04-24T02:18:58;0.10;;;0.10;;
23060;SDS011;11698;47.690;9.132;2023-04-24T02:21:24;0.45;;;0.20;;
23060;SDS011;11698;47.690;9.132;2023-04-24T02:23:50;0.50;;;0.10;;
23060;SDS011;11698;47.690;9.132;2023-04-24T02:26:16;0.10;;;0.10;;
23060;SDS011;11698;47.690;9.132;2023-04-24T02:28:43;0.20;;;0.20;;
23060;SDS011;11698;47.690;9.132;2023-04-24T02:31:09;0.28;;;0.10;;
23060;SDS011;11698;47.690;9.132;2023-04-24T02:33:35;0.13;;;0.13;;
23060;SDS011;11698;47.690;9.132;2023-04-24T02:36:01;0.20;;;0.15;;
23060;SDS011;11698;47.690;9.132;2023-04-24T02:38:28;0.20;;;0.10;;
23060;SDS011;11698;47.690;9.132;2023-04-24T02:40:53;0.00;;;0.00;;
23060;SDS011;11698;47.690;9.132;2023-04-24T02:43:20;0.20;;;0.10;;
23060;SDS011;11698;47.690;9.132;2023-04-24T02:45:45;0.10;;;0.10;;
23060;SDS011;11698;47.690;9.132;2023-04-24T02:48:12;0.40;;;0.20;;
23060;SDS011;11698;47.690;9.132;2023-04-24T02:50:37;0.10;;;0.10;;
23060;SDS011;11698;47.690;9.132;2023-04-24T02:53:03;0.10;;;0.10;;
23060;SDS011;11698;47.690;9.132;2023-04-24T02:55:30;0.60;;;0.10;;
23060;SDS011;11698;47.690;9.132;2023-04-24T02:57:56;0.20;;;0.20;;
23060;SDS011;11698;47.690;9.132;2023-04-24T03:00:22;0.30;;;0.15;;
23060;SDS011;11698;47.690;9.132;2023-04-24T03:02:48;0.15;;;0.15;;
23060;SDS011;11698;47.690;9.132;2023-04-24T03:05:14;0.10;;;0.10;;
23060;SDS011;11698;47.690;9.132;2023-04-24T03:07:41;0.20;;;0.20;;
23060;SDS011;11698;47.690;9.132;2023-04-24T03:10:07;1.00;;;0.20;;
23060;SDS011;11698;47.690;9.132;2023-04-24T03:12:33;1.80;;;0.20;;
23060;SDS011;11698;47.690;9.132;2023-04-24T03:14:59;0.10;;;0.10;;
23060;SDS011;11698;47.690;9.132;2023-04-24T03:17:25;0.30;;;0.10;;
23060;SDS011;11698;47.690;9.132;2023-04-24T03:19:51;0.10;;;0.10;;
23060;SDS011;11698;47.690;9.132;2023-04-24T03:22:17;0.10;;;0.10;;
23060;SDS011;11698;47.690;9.132;2023-04-24T03:24:43;0.10;;;0.10;;
23060;SDS011;11698;47.690;9.132;2023-04-24T03:27:09;0.40;;;0.10;;
23060;SDS011;11698;47.690;9.132;2023-04-24T03:29:35;0.10;;;0.10;;
23060;SDS011;11698;47.690;9.132;2023-04-24T03:32:01;0.10;;;0.10;;
23060;SDS011;11698;47.690;9.132;2023-04-24T03:34:27;0.10;;;0.10;;
23060;SDS011;11698;47.690;9.132;2023-04-24T03:36:53;0.50;;;0.00;;
23060;SDS011;11698;47.690;9.132;2023-04-24T03:39:19;0.10;;;0.00;;
23060;SDS011;11698;47.690;9.132;2023-04-24T03:41:45;0.45;;;0.10;;
23060;SDS011;11698;47.690;9.132;2023-04-24T03:44:11;0.00;;;0.00;;
23060;SDS011;11698;47.690;9.132;2023-04-24T03:46:37;0.50;;;0.10;;
23060;SDS011;11698;47.690;9.132;2023-04-24T03:49:03;0.20;;;0.10;;
23060;SDS011;11698;47.690;9.132;2023-04-24T03:51:29;0.00;;;0.00;;
23060;SDS011;11698;47.690;9.132;2023-04-24T03:53:56;0.32;;;0.10;;
23060;SDS011;11698;47.690;9.132;2023-04-24T03:56:22;0.10;;;0.03;;
23060;SDS011;11698;47.690;9.132;2023-04-24T03:58:48;1.50;;;0.20;;
23060;SDS011;11698;47.690;9.132;2023-04-24T04:01:14;0.20;;;0.10;;
23060;SDS011;11698;47.690;9.132;2023-04-24T04:03:41;0.40;;;0.40;;
23060;SDS011;11698;47.690;9.132;2023-04-24T04:06:07;0.20;;;0.10;;
23060;SDS011;11698;47.690;9.132;2023-04-24T04:08:33;0.10;;;0.10;;
23060;SDS011;11698;47.690;9.132;2023-04-24T04:10:59;0.43;;;0.05;;
23060;SDS011;11698;47.690;9.132;2023-04-24T04:13:25;2.20;;;0.10;;
23060;SDS011;11698;47.690;9.132;2023-04-24T04:15:51;1.10;;;0.20;;
23060;SDS011;11698;47.690;9.132;2023-04-24T04:18:17;0.17;;;0.00;;
23060;SDS011;11698;47.690;9.132;2023-04-24T04:20:43;0.10;;;0.10;;
23060;SDS011;11698;47.690;9.132;2023-04-24T04:23:09;0.10;;;0.10;;
23060;SDS011;11698;47.690;9.132;2023-04-24T04:25:35;0.20;;;0.00;;
23060;SDS011;11698;47.690;9.132;2023-04-24T04:28:01;0.03;;;0.00;;
23060;SDS011;11698;47.690;9.132;2023-04-24T04:30:27;0.40;;;0.00;;
23060;SDS011;11698;47.690;9.132;2023-04-24T04:32:57;0.10;;;0.03;;
23060;SDS011;11698;47.690;9.132;2023-04-24T04:35:23;0.00;;;0.00;;
23060;SDS011;11698;47.690;9.132;2023-04-24T04:37:49;0.10;;;0.10;;
23060;SDS011;11698;47.690;9.132;2023-04-24T04:40:16;0.20;;;0.00;;
23060;SDS011;11698;47.690;9.132;2023-04-24T04:42:42;0.10;;;0.10;;
23060;SDS011;11698;47.690;9.132;2023-04-24T04:45:10;0.00;;;0.00;;
23060;SDS011;11698;47.690;9.132;2023-04-24T04:47:37;0.32;;;0.10;;
23060;SDS011;11698;47.690;9.132;2023-04-24T04:50:03;0.10;;;0.10;;
23060;SDS011;11698;47.690;9.132;2023-04-24T04:52:30;0.08;;;0.08;;
23060;SDS011;11698;47.690;9.132;2023-04-24T04:54:56;0.75;;;0.10;;
23060;SDS011;11698;47.690;9.132;2023-04-24T04:57:22;0.07;;;0.07;;
23060;SDS011;11698;47.690;9.132;2023-04-24T04:59:48;0.25;;;0.00;;
23060;SDS011;11698;47.690;9.132;2023-04-24T05:02:14;0.10;;;0.10;;
23060;SDS011;11698;47.690;9.132;2023-04-24T05:04:40;0.10;;;0.10;;
23060;SDS011;11698;47.690;9.132;2023-04-24T05:07:06;0.82;;;0.08;;
23060;SDS011;11698;47.690;9.132;2023-04-24T05:09:32;0.15;;;0.03;;
23060;SDS011;11698;47.690;9.132;2023-04-24T05:11:58;0.00;;;0.00;;
23060;SDS011;11698;47.690;9.132;2023-04-24T05:14:25;0.20;;;0.10;;
23060;SDS011;11698;47.690;9.132;2023-04-24T05:16:51;0.10;;;0.10;;
23060;SDS011;11698;47.690;9.132;2023-04-24T05:19:17;0.40;;;0.00;;
23060;SDS011;11698;47.690;9.132;2023-04-24T05:21:43;0.00;;;0.00;;
23060;SDS011;11698;47.690;9.132;2023-04-24T05:24:09;0.00;;;0.00;;
23060;SDS011;11698;47.690;9.132;2023-04-24T05:26:35;0.00;;;0.00;;
23060;SDS011;11698;47.690;9.132;2023-04-24T05:29:01;0.00;;;0.00;;
23060;SDS011;11698;47.690;9.132;2023-04-24T05:31:27;0.00;;;0.00;;
23060;SDS011;11698;47.690;9.132;2023-04-24T05:33:53;0.03;;;0.00;;
23060;SDS011;11698;47.690;9.132;2023-04-24T05:36:19;0.30;;;0.00;;
23060;SDS011;11698;47.690;9.132;2023-04-24T05:38:45;0.10;;;0.10;;
23060;SDS011;11698;47.690;9.132;2023-04-24T05:41:11;0.08;;;0.08;;
23060;SDS011;11698;47.690;9.132;2023-04-24T05:43:37;0.20;;;0.17;;
23060;SDS011;11698;47.690;9.132;2023-04-24T05:46:03;0.20;;;0.10;;
23060;SDS011;11698;47.690;9.132;2023-04-24T05:48:29;0.20;;;0.20;;
23060;SDS011;11698;47.690;9.132;2023-04-24T05:50:56;0.55;;;0.10;;
23060;SDS011;11698;47.690;9.132;2023-04-24T05:53:22;0.40;;;0.40;;
23060;SDS011;11698;47.690;9.132;2023-04-24T05:55:48;0.35;;;0.35;;
23060;SDS011;11698;47.690;9.132;2023-04-24T05:58:14;0.40;;;0.20;;
23060;SDS011;11698;47.690;9.132;2023-04-24T06:00:40;0.30;;;0.20;;
23060;SDS011;11698;47.690;9.132;2023-04-24T06:03:07;0.25;;;0.15;;
23060;SDS011;11698;47.690;9.132;2023-04-24T06:05:34;0.43;;;0.20;;
23060;SDS011;11698;47.690;9.132;2023-04-24T06:08:00;0.17;;;0.13;;
23060;SDS011;11698;47.690;9.132;2023-04-24T06:10:26;0.50;;;0.30;;
23060;SDS011;11698;47.690;9.132;2023-04-24T06:12:52;0.50;;;0.20;;
23060;SDS011;11698;47.690;9.132;2023-04-24T06:15:21;0.75;;;0.40;;
23060;SDS011;11698;47.690;9.132;2023-04-24T06:17:47;1.20;;;0.50;;
23060;SDS011;11698;47.690;9.132;2023-04-24T06:20:13;0.60;;;0.20;;
23060;SDS011;11698;47.690;9.132;2023-04-24T06:22:42;0.40;;;0.20;;
23060;SDS011;11698;47.690;9.132;2023-04-24T06:25:08;0.73;;;0.30;;
23060;SDS011;11698;47.690;9.132;2023-04-24T06:27:34;1.25;;;0.38;;
23060;SDS011;11698;47.690;9.132;2023-04-24T06:30:00;0.33;;;0.33;;
23060;SDS011;11698;47.690;9.132;2023-04-24T06:32:26;0.55;;;0.25;;
23060;SDS011;11698;47.690;9.132;2023-04-24T06:34:52;0.30;;;0.30;;
23060;SDS011;11698;47.690;9.132;2023-04-24T06:37:19;0.35;;;0.35;;
23060;SDS011;11698;47.690;9.132;2023-04-24T06:39:46;1.00;;;0.40;;
23060;SDS011;11698;47.690;9.132;2023-04-24T06:42:12;0.40;;;0.40;;
23060;SDS011;11698;47.690;9.132;2023-04-24T06:44:38;0.45;;;0.45;;
23060;SDS011;11698;47.690;9.132;2023-04-24T06:47:08;0.30;;;0.30;;
23060;SDS011;11698;47.690;9.132;2023-04-24T06:49:35;0.98;;;0.38;;
23060;SDS011;11698;47.690;9.132;2023-04-24T06:52:00;1.77;;;0.50;;
23060;SDS011;11698;47.690;9.132;2023-04-24T06:54:27;1.77;;;0.60;;
23060;SDS011;11698;47.690;9.132;2023-04-24T06:56:53;0.90;;;0.25;;
23060;SDS011;11698;47.690;9.132;2023-04-24T06:59:19;1.27;;;0.67;;
23060;SDS011;11698;47.690;9.132;2023-04-24T07:01:45;0.60;;;0.50;;
23060;SDS011;11698;47.690;9.132;2023-04-24T07:04:11;0.65;;;0.38;;
23060;SDS011;11698;47.690;9.132;2023-04-24T07:06:38;1.77;;;0.70;;
23060;SDS011;11698;47.690;9.132;2023-04-24T07:09:04;0.90;;;0.63;;
23060;SDS011;11698;47.690;9.132;2023-04-24T07:11:30;0.80;;;0.60;;
23060;SDS011;11698;47.690;9.132;2023-04-24T07:13:56;0.30;;;0.30;;
23060;SDS011;11698;47.690;9.132;2023-04-24T07:16:22;1.60;;;0.50;;
23060;SDS011;11698;47.690;9.132;2023-04-24T07:18:48;0.57;;;0.57;;
23060;SDS011;11698;47.690;9.132;2023-04-24T07:21:14;0.70;;;0.50;;
23060;SDS011;11698;47.690;9.132;2023-04-24T07:23:40;0.55;;;0.50;;
23060;SDS011;11698;47.690;9.132;2023-04-24T07:26:06;2.45;;;0.80;;
23060;SDS011;11698;47.690;9.132;2023-04-24T07:28:32;2.37;;;0.90;;
23060;SDS011;11698;47.690;9.132;2023-04-24T07:30:58;0.90;;;0.40;;
23060;SDS011;11698;47.690;9.132;2023-04-24T07:33:25;0.60;;;0.43;;
23060;SDS011;11698;47.690;9.132;2023-04-24T07:35:51;1.25;;;0.80;;
23060;SDS011;11698;47.690;9.132;2023-04-24T07:38:17;1.40;;;0.73;;
23060;SDS011;11698;47.690;9.132;2023-04-24T07:40:47;1.33;;;0.63;;
23060;SDS011;11698;47.690;9.132;2023-04-24T07:43:13;1.88;;;0.88;;
23060;SDS011;11698;47.690;9.132;2023-04-24T07:45:39;2.05;;;0.80;;
23060;SDS011;11698;47.690;9.132;2023-04-24T07:48:05;2.00;;;0.63;;
23060;SDS011;11698;47.690;9.132;2023-04-24T07:50:33;0.80;;;0.57;;
23060;SDS011;11698;47.690;9.132;2023-04-24T07:53:00;0.47;;;0.47;;
23060;SDS011;11698;47.690;9.132;2023-04-24T07:55:27;0.80;;;0.57;;
23060;SDS011;11698;47.690;9.132;2023-04-24T07:57:53;0.82;;;0.70;;
23060;SDS011;11698;47.690;9.132;2023-04-24T08:00:19;2.00;;;0.82;;
23060;SDS011;11698;47.690;9.132;2023-04-24T08:02:45;1.85;;;0.60;;
23060;SDS011;11698;47.690;9.132;2023-04-24T08:05:11;1.23;;;0.57;;
23060;SDS011;11698;47.690;9.132;2023-04-24T08:07:37;1.50;;;0.67;;
23060;SDS011;11698;47.690;9.132;2023-04-24T08:10:04;0.60;;;0.60;;
23060;SDS011;11698;47.690;9.132;2023-04-24T08:12:30;2.47;;;0.70;;
23060;SDS011;11698;47.690;9.132;2023-04-24T08:14:56;1.33;;;0.53;;
23060;SDS011;11698;47.690;9.132;2023-04-24T08:17:23;1.10;;;0.40;;
23060;SDS011;11698;47.690;9.132;2023-04-24T08:19:50;1.50;;;0.40;;
23060;SDS011;11698;47.690;9.132;2023-04-24T08:22:18;0.75;;;0.40;;
23060;SDS011;11698;47.690;9.132;2023-04-24T08:24:44;0.33;;;0.30;;
23060;SDS011;11698;47.690;9.132;2023-04-24T08:27:10;0.30;;;0.30;;
23060;SDS011;11698;47.690;9.132;2023-04-24T08:29:36;1.40;;;0.30;;
23060;SDS011;11698;47.690;9.132;2023-04-24T08:32:02;0.82;;;0.50;;
23060;SDS011;11698;47.690;9.132;2023-04-24T08:34:28;0.70;;;0.32;;
23060;SDS011;11698;47.690;9.132;2023-04-24T08:36:54;0.50;;;0.30;;
23060;SDS011;11698;47.690;9.132;2023-04-24T08:39:20;1.95;;;0.45;;
23060;SDS011;11698;47.690;9.132;2023-04-24T08:41:46;0.60;;;0.40;;
23060;SDS011;11698;47.690;9.132;2023-04-24T08:44:14;0.65;;;0.43;;
23060;SDS011;11698;47.690;9.132;2023-04-24T08:46:41;1.57;;;0.67;;
23060;SDS011;11698;47.690;9.132;2023-04-24T08:49:08;1.13;;;0.60;;
23060;SDS011;11698;47.690;9.132;2023-04-24T08:51:36;0.65;;;0.43;;
23060;SDS011;11698;47.690;9.132;2023-04-24T08:54:02;1.00;;;0.50;;
23060;SDS011;11698;47.690;9.132;2023-04-24T08:56:28;0.65;;;0.50;;
23060;SDS011;11698;47.690;9.132;2023-04-24T08:58:55;2.00;;;0.67;;
23060;SDS011;11698;47.690;9.132;2023-04-24T09:01:22;2.97;;;0.68;;
23060;SDS011;11698;47.690;9.132;2023-04-24T09:03:49;0.40;;;0.32;;
23060;SDS011;11698;47.690;9.132;2023-04-24T09:06:16;1.33;;;0.40;;
23060;SDS011;11698;47.690;9.132;2023-04-24T09:08:43;0.50;;;0.50;;
23060;SDS011;11698;47.690;9.132;2023-04-24T09:11:09;1.30;;;0.63;;
23060;SDS011;11698;47.690;9.132;2023-04-24T09:13:35;0.93;;;0.60;;
23060;SDS011;11698;47.690;9.132;2023-04-24T09:16:02;1.02;;;0.52;;
23060;SDS011;11698;47.690;9.132;2023-04-24T09:18:28;1.15;;;0.43;;
23060;SDS011;11698;47.690;9.132;2023-04-24T09:21:04;2.70;;;0.70;;
23060;SDS011;11698;47.690;9.132;2023-04-24T09:23:31;0.88;;;0.40;;
23060;SDS011;11698;47.690;9.132;2023-04-24T09:25:57;1.30;;;0.60;;
23060;SDS011;11698;47.690;9.132;2023-04-24T09:28:32;1.15;;;0.70;;
23060;SDS011;11698;47.690;9.132;2023-04-24T09:31:09;1.57;;;0.70;;
23060;SDS011;11698;47.690;9.132;2023-04-24T09:33:35;2.80;;;0.60;;
23060;SDS011;11698;47.690;9.132;2023-04-24T09:36:02;0.60;;;0.60;;
23060;SDS011;11698;47.690;9.132;2023-04-24T09:38:37;0.57;;;0.47;;
23060;SDS011;11698;47.690;9.132;2023-04-24T09:41:07;1.50;;;0.60;;
23060;SDS011;11698;47.690;9.132;2023-04-24T09:43:34;0.80;;;0.50;;
23060;SDS011;11698;47.690;9.132;2023-04-24T09:46:04;1.10;;;0.80;;
23060;SDS011;11698;47.690;9.132;2023-04-24T09:48:30;2.20;;;0.70;;
23060;SDS011;11698;47.690;9.132;2023-04-24T09:50:57;1.38;;;0.65;;
23060;SDS011;11698;47.690;9.132;2023-04-24T09:53:24;0.50;;;0.50;;
23060;SDS011;11698;47.690;9.132;2023-04-24T09:55:50;1.73;;;0.60;;
23060;SDS011;11698;47.690;9.132;2023-04-24T09:58:18;0.68;;;0.60;;
23060;SDS011;11698;47.690;9.132;2023-04-24T10:00:44;1.50;;;0.40;;
23060;SDS011;11698;47.690;9.132;2023-04-24T10:03:11;1.00;;;0.80;;
23060;SDS011;11698;47.690;9.132;2023-04-24T10:05:37;1.38;;;0.68;;
23060;SDS011;11698;47.690;9.132;2023-04-24T10:08:05;1.38;;;0.73;;
23060;SDS011;11698;47.690;9.132;2023-04-24T10:10:31;0.70;;;0.47;;
23060;SDS011;11698;47.690;9.132;2023-04-24T10:12:58;0.77;;;0.70;;
23060;SDS011;11698;47.690;9.132;2023-04-24T10:15:25;1.20;;;0.70;;
23060;SDS011;11698;47.690;9.132;2023-04-24T10:17:52;1.15;;;0.70;;
23060;SDS011;11698;47.690;9.132;2023-04-24T10:20:22;1.23;;;0.73;;
23060;SDS011;11698;47.690;9.132;2023-04-24T10:22:49;0.63;;;0.50;;
23060;SDS011;11698;47.690;9.132;2023-04-24T10:25:19;1.60;;;0.63;;
23060;SDS011;11698;47.690;9.132;2023-04-24T10:27:45;0.70;;;0.60;;
23060;SDS011;11698;47.690;9.132;2023-04-24T10:30:12;2.15;;;0.65;;
23060;SDS011;11698;47.690;9.132;2023-04-24T10:32:38;1.00;;;0.60;;
23060;SDS011;11698;47.690;9.132;2023-04-24T10:35:08;1.53;;;0.40;;
23060;SDS011;11698;47.690;9.132;2023-04-24T10:37:39;0.85;;;0.40;;
23060;SDS011;11698;47.690;9.132;2023-04-24T10:40:07;1.90;;;0.90;;
23060;SDS011;11698;47.690;9.132;2023-04-24T10:42:33;2.08;;;0.60;;
23060;SDS011;11698;47.690;9.132;2023-04-24T10:44:59;0.70;;;0.68;;
23060;SDS011;11698;47.690;9.132;2023-04-24T10:47:27;1.70;;;0.40;;
23060;SDS011;11698;47.690;9.132;2023-04-24T10:49:53;0.60;;;0.50;;
23060;SDS011;11698;47.690;9.132;2023-04-24T10:52:19;1.67;;;0.52;;
23060;SDS011;11698;47.690;9.132;2023-04-24T10:54:45;0.85;;;0.60;;
23060;SDS011;11698;47.690;9.132;2023-04-24T10:59:45;3.70;;;0.60;;
23060;SDS011;11698;47.690;9.132;2023-04-24T11:02:11;1.25;;;0.50;;
23060;SDS011;11698;47.690;9.132;2023-04-24T11:04:40;1.75;;;0.80;;
23060;SDS011;11698;47.690;9.132;2023-04-24T11:07:08;0.65;;;0.65;;
23060;SDS011;11698;47.690;9.132;2023-04-24T11:09:34;0.95;;;0.40;;
23060;SDS011;11698;47.690;9.132;2023-04-24T11:15:01;0.50;;;0.40;;
23060;SDS011;11698;47.690;9.132;2023-04-24T11:17:37;3.05;;;0.68;;
23060;SDS011;11698;47.690;9.132;2023-04-24T11:20:22;0.98;;;0.70;;
23060;SDS011;11698;47.690;9.132;2023-04-24T11:22:51;0.85;;;0.40;;
23060;SDS011;11698;47.690;9.132;2023-04-24T11:25:18;0.57;;;0.40;;
23060;SDS011;11698;47.690;9.132;2023-04-24T11:27:46;1.55;;;0.55;;
23060;SDS011;11698;47.690;9.132;2023-04-24T11:30:13;0.45;;;0.45;;
23060;SDS011;11698;47.690;9.132;2023-04-24T11:32:42;0.77;;;0.60;;
23060;SDS011;11698;47.690;9.132;2023-04-24T11:37:38;1.40;;;0.60;;
23060;SDS011;11698;47.690;9.132;2023-04-24T11:40:05;0.30;;;0.30;;
23060;SDS011;11698;47.690;9.132;2023-04-24T11:42:35;0.93;;;0.50;;
23060;SDS011;11698;47.690;9.132;2023-04-24T11:45:01;0.40;;;0.40;;
23060;SDS011;11698;47.690;9.132;2023-04-24T11:47:29;1.10;;;0.50;;
23060;SDS011;11698;47.690;9.132;2023-04-24T11:49:55;1.05;;;0.50;;
23060;SDS011;11698;47.690;9.132;2023-04-24T11:52:21;1.30;;;0.60;;
23060;SDS011;11698;47.690;9.132;2023-04-24T11:54:48;0.50;;;0.30;;
23060;SDS011;11698;47.690;9.132;2023-04-24T11:57:15;0.60;;;0.47;;
23060;SDS011;11698;47.690;9.132;2023-04-24T11:59:41;1.33;;;0.50;;
23060;SDS011;11698;47.690;9.132;2023-04-24T12:02:08;1.10;;;0.60;;
23060;SDS011;11698;47.690;9.132;2023-04-24T12:04:40;1.42;;;0.70;;
23060;SDS011;11698;47.690;9.132;2023-04-24T12:07:06;1.73;;;0.70;;
23060;SDS011;11698;47.690;9.132;2023-04-24T12:09:45;0.98;;;0.60;;
23060;SDS011;11698;47.690;9.132;2023-04-24T12:12:12;1.60;;;0.60;;
23060;SDS011;11698;47.690;9.132;2023-04-24T12:14:46;1.00;;;0.50;;
23060;SDS011;11698;47.690;9.132;2023-04-24T12:17:12;0.77;;;0.70;;
23060;SDS011;11698;47.690;9.132;2023-04-24T12:19:44;1.15;;;0.65;;
23060;SDS011;11698;47.690;9.132;2023-04-24T12:22:10;0.80;;;0.55;;
23060;SDS011;11698;47.690;9.132;2023-04-24T12:24:55;1.65;;;0.70;;
23060;SDS011;11698;47.690;9.132;2023-04-24T12:27:21;0.88;;;0.60;;
23060;SDS011;11698;47.690;9.132;2023-04-24T12:29:57;0.77;;;0.60;;
23060;SDS011;11698;47.690;9.132;2023-04-24T12:32:24;1.00;;;0.60;;
23060;SDS011;11698;47.690;9.132;2023-04-24T12:34:50;1.58;;;0.65;;
23060;SDS011;11698;47.690;9.132;2023-04-24T12:37:17;2.10;;;0.53;;
23060;SDS011;11698;47.690;9.132;2023-04-24T12:42:25;0.60;;;0.60;;
23060;SDS011;11698;47.690;9.132;2023-04-24T12:44:55;0.50;;;0.50;;
23060;SDS011;11698;47.690;9.132;2023-04-24T12:47:21;1.20;;;0.52;;
23060;SDS011;11698;47.690;9.132;2023-04-24T12:49:47;0.63;;;0.50;;
23060;SDS011;11698;47.690;9.132;2023-04-24T12:52:15;1.05;;;0.57;;
23060;SDS011;11698;47.690;9.132;2023-04-24T12:54:42;1.48;;;0.75;;
23060;SDS011;11698;47.690;9.132;2023-04-24T12:57:09;0.50;;;0.50;;
23060;SDS011;11698;47.690;9.132;2023-04-24T12:59:35;1.45;;;0.88;;
23060;SDS011;11698;47.690;9.132;2023-04-24T13:02:01;1.20;;;0.60;;
23060;SDS011;11698;47.690;9.132;2023-04-24T13:04:27;1.05;;;0.60;;
23060;SDS011;11698;47.690;9.132;2023-04-24T13:06:52;1.00;;;0.60;;
23060;SDS011;11698;47.690;9.132;2023-04-24T13:09:18;1.30;;;0.57;;
23060;SDS011;11698;47.690;9.132;2023-04-24T13:11:44;0.77;;;0.68;;
23060;SDS011;11698;47.690;9.132;2023-04-24T13:14:10;0.87;;;0.70;;
23060;SDS011;11698;47.690;9.132;2023-04-24T13:16:36;1.60;;;0.70;;
23060;SDS011;11698;47.690;9.132;2023-04-24T13:19:02;1.00;;;0.70;;
23060;SDS011;11698;47.690;9.132;2023-04-24T13:21:29;0.70;;;0.47;;
23060;SDS011;11698;47.690;9.132;2023-04-24T13:23:55;1.90;;;0.80;;
23060;SDS011;11698;47.690;9.132;2023-04-24T13:26:21;1.30;;;0.70;;
23060;SDS011;11698;47.690;9.132;2023-04-24T13:28:47;1.02;;;0.60;;
23060;SDS011;11698;47.690;9.132;2023-04-24T13:31:13;1.10;;;0.85;;
23060;SDS011;11698;47.690;9.132;2023-04-24T13:33:39;0.80;;;0.50;;
23060;SDS011;11698;47.690;9.132;2023-04-24T13:36:05;2.00;;;0.70;;
23060;SDS011;11698;47.690;9.132;2023-04-24T13:38:31;1.95;;;0.80;;
23060;SDS011;11698;47.690;9.132;2023-04-24T13:40:57;2.37;;;0.87;;
23060;SDS011;11698;47.690;9.132;2023-04-24T13:43:23;1.33;;;0.70;;
23060;SDS011;11698;47.690;9.132;2023-04-24T13:45:49;0.57;;;0.52;;
23060;SDS011;11698;47.690;9.132;2023-04-24T13:48:15;0.50;;;0.50;;
23060;SDS011;11698;47.690;9.132;2023-04-24T13:50:42;2.47;;;0.70;;
23060;SDS011;11698;47.690;9.132;2023-04-24T13:53:09;0.85;;;0.75;;
23060;SDS011;11698;47.690;9.132;2023-04-24T13:55:35;1.40;;;0.70;;
23060;SDS011;11698;47.690;9.132;2023-04-24T13:58:01;2.10;;;0.60;;
23060;SDS011;11698;47.690;9.132;2023-04-24T14:00:28;1.73;;;0.60;;
23060;SDS011;11698;47.690;9.132;2023-04-24T14:02:54;0.82;;;0.70;;
23060;SDS011;11698;47.690;9.132;2023-04-24T14:05:20;1.50;;;0.52;;
23060;SDS011;11698;47.690;9.132;2023-04-24T14:07:46;2.13;;;0.63;;
23060;SDS011;11698;47.690;9.132;2023-04-24T14:10:12;2.70;;;0.87;;
23060;SDS011;11698;47.690;9.132;2023-04-24T14:12:38;1.50;;;0.40;;
23060;SDS011;11698;47.690;9.132;2023-04-24T14:15:05;1.15;;;0.60;;
23060;SDS011;11698;47.690;9.132;2023-04-24T14:17:31;1.00;;;0.40;;
23060;SDS011;11698;47.690;9.132;2023-04-24T14:19:57;1.85;;;0.73;;
23060;SDS011;11698;47.690;9.132;2023-04-24T14:22:25;1.15;;;0.50;;
23060;SDS011;11698;47.690;9.132;2023-04-24T14:24:51;0.80;;;0.60;;
23060;SDS011;11698;47.690;9.132;2023-04-24T14:27:17;0.43;;;0.30;;
23060;SDS011;11698;47.690;9.132;2023-04-24T14:29:43;1.50;;;0.50;;
23060;SDS011;11698;47.690;9.132;2023-04-24T14:32:10;0.70;;;0.70;;
23060;SDS011;11698;47.690;9.132;2023-04-24T14:34:36;1.00;;;0.70;;
23060;SDS011;11698;47.690;9.132;2023-04-24T14:37:02;1.77;;;0.68;;
23060;SDS011;11698;47.690;9.132;2023-04-24T14:39:28;0.43;;;0.32;;
23060;SDS011;11698;47.690;9.132;2023-04-24T14:41:54;1.15;;;0.57;;
23060;SDS011;11698;47.690;9.132;2023-04-24T14:44:20;0.85;;;0.45;;
23060;SDS011;11698;47.690;9.132;2023-04-24T14:46:47;1.45;;;0.45;;
23060;SDS011;11698;47.690;9.132;2023-04-24T14:49:14;0.90;;;0.50;;
23060;SDS011;11698;47.690;9.132;2023-04-24T14:51:40;0.82;;;0.45;;
23060;SDS011;11698;47.690;9.132;2023-04-24T14:54:07;1.10;;;0.22;;
23060;SDS011;11698;47.690;9.132;2023-04-24T14:56:33;0.82;;;0.60;;